Time;durP1;ratioP1;P1;durP2;ratioP2;P2;SDS_P1;SDS_P2;PMS_P1;PMS_P2;Temp;Humidity;BMP_temperature;BMP_pressure;BME280_temperature;BME280_humidity;BME280_pressure;Samples;Min_cycle;Max_cycle;Signal;HPM_P1;HPM_P2
2023/06/02 00:02:16;;;;;;;10.80;5.20;;;;;;;10.25;87.53;102022.34;5096410;28;20073;-45
2023/06/02 00:04:42;;;;;;;11.60;5.32;;;;;;;10.23;87.82;102023.97;5095852;28;20047;-45
2023/06/02 00:07:08;;;;;;;12.43;5.32;;;;;;;10.20;87.31;102019.56;5096556;28;20024;-45
2023/06/02 00:09:38;;;;;;;10.60;5.22;;;;;;;10.17;87.25;102020.28;5096190;28;20055;-48
2023/06/02 00:12:04;;;;;;;16.17;5.13;;;;;;;10.16;88.01;102023.66;5095886;28;20028;-44
2023/06/02 00:14:30;;;;;;;12.57;4.85;;;;;;;10.15;87.55;102026.16;5096156;28;20483;-44
2023/06/02 00:16:57;;;;;;;16.65;5.20;;;;;;;10.14;87.83;102021.81;5096439;28;20020;-45
2023/06/02 00:19:23;;;;;;;12.40;5.68;;;;;;;10.12;87.92;102021.75;5095201;28;20048;-44
2023/06/02 00:21:48;;;;;;;11.90;4.97;;;;;;;10.07;87.05;102012.91;5096257;28;20020;-46
2023/06/02 00:24:14;;;;;;;10.48;4.90;;;;;;;10.05;86.71;102024.81;5096300;28;20024;-44
2023/06/02 00:26:39;;;;;;;10.65;4.60;;;;;;;10.00;85.35;102018.53;5095066;28;20050;-44
2023/06/02 00:29:05;;;;;;;14.93;4.88;;;;;;;9.95;85.48;102012.25;5096332;28;20040;-44
2023/06/02 00:31:31;;;;;;;12.52;5.32;;;;;;;9.92;84.98;102017.28;5095638;28;20111;-45
2023/06/02 00:33:56;;;;;;;15.32;4.53;;;;;;;9.89;84.86;102018.88;5095890;28;20500;-44
2023/06/02 00:36:21;;;;;;;12.75;4.70;;;;;;;9.86;84.27;102021.31;5095664;28;20034;-47
2023/06/02 00:38:46;;;;;;;10.48;4.82;;;;;;;9.84;84.25;102015.19;5095664;28;20026;-46
2023/06/02 00:41:12;;;;;;;14.80;5.05;;;;;;;9.84;85.36;102019.47;5095503;28;20035;-45
2023/06/02 00:43:37;;;;;;;15.43;4.90;;;;;;;9.80;84.71;102018.41;5095682;28;20016;-44
2023/06/02 00:46:02;;;;;;;16.90;5.55;;;;;;;9.79;84.76;102021.78;5095562;28;20032;-46
2023/06/02 00:48:28;;;;;;;14.65;5.60;;;;;;;9.77;84.45;102017.34;5095268;28;20073;-47
2023/06/02 00:50:53;;;;;;;15.48;5.70;;;;;;;9.76;83.74;102021.63;5095710;28;20529;-47
2023/06/02 00:53:19;;;;;;;15.38;5.97;;;;;;;9.75;83.92;102018.94;5095156;28;20028;-48
2023/06/02 00:55:44;;;;;;;17.40;6.05;;;;;;;9.71;83.94;102012.78;5095174;28;20024;-45
2023/06/02 00:58:13;;;;;;;13.40;5.82;;;;;;;9.69;83.57;102019.53;5095768;28;20153;-44
2023/06/02 01:00:40;;;;;;;20.20;5.63;;;;;;;9.66;82.81;102016.81;5094606;28;20095;-45
2023/06/02 01:03:07;;;;;;;23.02;6.18;;;;;;;9.65;82.44;102017.59;5094996;28;20380;-44
2023/06/02 01:05:33;;;;;;;19.83;6.00;;;;;;;9.62;82.92;102018.34;5095351;28;20054;-44
2023/06/02 01:08:00;;;;;;;17.23;6.13;;;;;;;9.60;83.12;102024.22;5094617;28;20163;-45
2023/06/02 01:10:27;;;;;;;18.67;5.57;;;;;;;9.61;83.08;102026.84;5095297;28;20031;-44
2023/06/02 01:12:54;;;;;;;19.30;5.60;;;;;;;9.61;84.50;102025.97;5095275;28;20467;-46
2023/06/02 01:15:19;;;;;;;18.90;5.60;;;;;;;9.58;82.74;102018.97;5094256;28;20028;-45
2023/06/02 01:17:45;;;;;;;16.10;5.50;;;;;;;9.57;83.26;102024.94;5095234;28;20028;-44
2023/06/02 01:20:13;;;;;;;16.42;5.63;;;;;;;9.58;82.81;102034.44;5094949;28;20051;-44
2023/06/02 01:22:54;;;;;;;19.83;5.40;;;;;;;9.58;82.71;102020.66;5094080;28;20535;-44
2023/06/02 01:25:21;;;;;;;16.90;5.07;;;;;;;9.57;82.63;102022.34;5095041;28;20069;-48
2023/06/02 01:27:47;;;;;;;20.50;5.65;;;;;;;9.55;82.61;102019.72;5095054;28;20023;-45
2023/06/02 01:30:13;;;;;;;17.60;4.80;;;;;;;9.55;83.47;102013.66;5094480;28;20028;-46
2023/06/02 01:32:47;;;;;;;15.15;4.65;;;;;;;9.55;83.06;102018.81;5094592;28;20529;-44
2023/06/02 01:35:14;;;;;;;19.77;4.45;;;;;;;9.56;83.35;102021.44;5094815;28;20038;-44
2023/06/02 01:37:50;;;;;;;14.68;4.88;;;;;;;9.56;83.14;102018.88;5094087;28;20020;-44
2023/06/02 01:40:16;;;;;;;18.60;5.45;;;;;;;9.57;83.12;102012.06;5094613;28;20064;-44
2023/06/02 01:42:43;;;;;;;19.15;4.90;;;;;;;9.55;83.97;102008.50;5094554;28;20103;-43
2023/06/02 01:45:09;;;;;;;16.90;4.95;;;;;;;9.58;84.19;102010.34;5094060;28;20066;-43
2023/06/02 01:47:35;;;;;;;16.20;4.88;;;;;;;9.59;84.09;102012.13;5094327;28;20024;-45
2023/06/02 01:50:00;;;;;;;18.25;4.65;;;;;;;9.59;83.81;102014.72;5094023;28;20032;-45
2023/06/02 01:52:25;;;;;;;15.15;4.65;;;;;;;9.60;84.35;102019.06;5094415;28;20031;-45
2023/06/02 01:54:51;;;;;;;14.57;4.60;;;;;;;9.61;83.83;102013.13;5094458;28;20055;-44
2023/06/02 01:57:16;;;;;;;21.92;5.47;;;;;;;9.62;84.07;102012.28;5093372;28;20020;-45
2023/06/02 01:59:41;;;;;;;19.10;4.97;;;;;;;9.62;84.46;102007.13;5094344;28;20028;-44
2023/06/02 02:02:07;;;;;;;18.55;4.68;;;;;;;9.63;84.38;102008.91;5094203;28;20032;-43
2023/06/02 02:04:32;;;;;;;15.60;5.30;;;;;;;9.63;83.97;102002.09;5093111;28;20055;-47
2023/06/02 02:07:01;;;;;;;17.48;5.20;;;;;;;9.64;84.01;102008.13;5094305;28;20032;-44
2023/06/02 02:09:27;;;;;;;14.70;4.72;;;;;;;9.64;84.83;102008.97;5093876;28;20028;-45
2023/06/02 02:11:52;;;;;;;18.20;5.70;;;;;;;9.64;84.20;102010.69;5093514;28;20028;-46
2023/06/02 02:14:19;;;;;;;18.13;5.65;;;;;;;9.64;84.71;102008.13;5092987;28;20046;-44
2023/06/02 02:16:49;;;;;;;16.45;5.38;;;;;;;9.66;84.53;102009.97;5093927;28;20531;-44
2023/06/02 02:19:16;;;;;;;20.58;5.38;;;;;;;9.68;84.74;102010.03;5093404;28;20080;-44
2023/06/02 02:21:41;;;;;;;16.73;4.97;;;;;;;9.67;84.61;102011.75;5094179;28;20104;-44
2023/06/02 02:24:07;;;;;;;21.58;5.15;;;;;;;9.67;85.16;102010.84;5093843;28;20024;-44
2023/06/02 02:26:32;;;;;;;16.58;5.53;;;;;;;9.68;84.80;102012.59;5093096;28;20028;-45
2023/06/02 02:28:57;;;;;;;17.45;5.90;;;;;;;9.70;84.96;102008.44;5093993;28;20157;-44
2023/06/02 02:31:23;;;;;;;16.88;5.00;;;;;;;9.70;84.99;102001.59;5093240;28;20024;-45
2023/06/02 02:33:48;;;;;;;20.20;6.18;;;;;;;9.71;85.04;102007.63;5093420;28;20520;-44
2023/06/02 02:36:16;;;;;;;17.15;5.88;;;;;;;9.72;85.51;102015.44;5093746;28;20028;-47
2023/06/02 02:38:41;;;;;;;15.77;5.88;;;;;;;9.72;85.73;102010.28;5093530;28;20133;-45
2023/06/02 02:41:07;;;;;;;20.98;5.93;;;;;;;9.72;85.37;102002.56;5093217;28;20053;-44
2023/06/02 02:43:32;;;;;;;22.48;6.30;;;;;;;9.76;85.08;102007.84;5093299;28;20031;-45
2023/06/02 02:45:57;;;;;;;16.23;6.50;;;;;;;9.75;85.54;102000.94;5093483;28;20372;-44
2023/06/02 02:48:22;;;;;;;15.05;5.38;;;;;;;9.76;86.22;102003.63;5092846;28;20028;-46
2023/06/02 02:50:48;;;;;;;19.27;6.00;;;;;;;9.75;86.28;101998.34;5093344;28;20024;-44
2023/06/02 02:53:15;;;;;;;15.27;5.85;;;;;;;9.76;86.80;101995.88;5092947;28;20027;-44
2023/06/02 02:55:41;;;;;;;19.75;6.15;;;;;;;9.75;87.01;101996.69;5093331;28;20035;-45
2023/06/02 02:58:08;;;;;;;17.17;6.00;;;;;;;9.74;87.70;101996.63;5093321;28;20020;-46
2023/06/02 03:00:33;;;;;;;19.77;6.53;;;;;;;9.74;86.48;101996.63;5092461;28;20016;-44
2023/06/02 03:03:01;;;;;;;14.20;5.55;;;;;;;9.72;86.78;102002.56;5093354;28;20024;-45
2023/06/02 03:05:26;;;;;;;21.35;6.45;;;;;;;9.72;87.19;102007.72;5093069;28;20107;-44
2023/06/02 03:07:51;;;;;;;18.15;5.75;;;;;;;9.69;86.00;101999.81;5092598;28;20095;-46
2023/06/02 03:10:17;;;;;;;18.83;5.47;;;;;;;9.67;85.40;101995.38;5093057;28;20111;-44
2023/06/02 03:12:42;;;;;;;19.38;5.75;;;;;;;9.64;86.10;102002.97;5093034;28;20167;-44
2023/06/02 03:15:08;;;;;;;19.92;5.78;;;;;;;9.62;85.26;102007.13;5092386;28;20459;-46
2023/06/02 03:17:34;;;;;;;16.52;5.63;;;;;;;9.60;84.84;102013.91;5092899;28;20056;-44
2023/06/02 03:19:59;;;;;;;17.10;4.95;;;;;;;9.56;84.97;102018.88;5092717;28;20040;-47
2023/06/02 03:22:25;;;;;;;15.68;4.78;;;;;;;9.55;85.02;102026.53;5092215;28;20066;-44
2023/06/02 03:24:50;;;;;;;21.23;5.63;;;;;;;9.52;84.25;102022.09;5092604;28;20028;-44
2023/06/02 03:27:16;;;;;;;15.05;5.32;;;;;;;9.49;83.43;102021.94;5092615;28;20024;-45
2023/06/02 03:29:44;;;;;;;16.42;5.20;;;;;;;9.45;83.72;102025.16;5092255;28;20016;-44
2023/06/02 03:32:11;;;;;;;17.05;5.22;;;;;;;9.43;83.53;102020.75;5093026;28;20028;-45
2023/06/02 03:34:39;;;;;;;15.95;5.30;;;;;;;9.41;83.39;102028.34;5092503;28;20066;-45
2023/06/02 03:37:04;;;;;;;;;;;;;;;9.51;83.20;102020.31;5092919;28;20048;-47
2023/06/02 03:39:29;;;;;;;16.23;5.10;;;;;;;9.40;83.32;102018.91;5092705;28;19912;-45
2023/06/02 03:41:55;;;;;;;15.85;4.88;;;;;;;9.38;83.82;102025.63;5092506;28;20605;-45
2023/06/02 03:44:20;;;;;;;17.52;5.68;;;;;;;9.37;84.29;102023.84;5092148;28;20035;-49
2023/06/02 03:46:45;;;;;;;16.92;5.55;;;;;;;9.36;84.05;102022.09;5092906;28;20434;-49
2023/06/02 03:49:10;;;;;;;22.75;6.03;;;;;;;9.35;84.53;102025.47;5092442;28;20020;-48
2023/06/02 03:51:36;;;;;;;15.38;5.15;;;;;;;9.33;83.96;102021.94;5092079;28;20020;-50
2023/06/02 03:54:02;;;;;;;13.40;4.75;;;;;;;9.31;84.72;102023.53;5092711;28;20031;-45
2023/06/02 03:56:27;;;;;;;15.88;5.18;;;;;;;9.28;84.24;102025.94;5092087;28;20024;-48
2023/06/02 03:58:53;;;;;;;14.02;4.65;;;;;;;9.27;84.38;102029.31;5092022;28;20028;-45
2023/06/02 04:01:18;;;;;;;17.98;5.13;;;;;;;9.26;84.89;102030.09;5092470;28;20041;-50
2023/06/02 04:03:44;;;;;;;13.88;5.25;;;;;;;9.23;84.78;102026.59;5091997;28;20024;-48
2023/06/02 04:06:09;;;;;;;18.83;5.05;;;;;;;9.21;84.20;102029.88;5092712;28;20356;-48
2023/06/02 04:08:35;;;;;;;15.48;5.35;;;;;;;9.20;84.27;102038.41;5092224;28;20078;-49
2023/06/02 04:11:00;;;;;;;14.75;4.65;;;;;;;9.18;83.89;102030.59;5091719;28;20031;-49
2023/06/02 04:13:27;;;;;;;12.73;4.70;;;;;;;9.17;83.89;102044.25;5092355;28;20020;-48
2023/06/02 04:15:52;;;;;;;13.55;4.85;;;;;;;9.17;83.72;102044.25;5092341;28;20462;-48
2023/06/02 04:18:17;;;;;;;14.13;4.82;;;;;;;9.17;84.03;102041.69;5091647;28;20107;-47
2023/06/02 04:20:43;;;;;;;19.50;5.43;;;;;;;9.17;84.26;102038.25;5092417;28;20052;-48
2023/06/02 04:23:08;;;;;;;18.00;6.05;;;;;;;9.17;84.41;102033.09;5092239;28;20506;-44
2023/06/02 04:25:33;;;;;;;13.70;5.13;;;;;;;9.17;84.94;102033.97;5091618;28;20023;-48
2023/06/02 04:27:58;;;;;;;13.23;5.45;;;;;;;9.21;84.49;102046.19;5092345;28;20471;-46
2023/06/02 04:30:24;;;;;;;15.57;5.43;;;;;;;9.22;84.33;102034.22;5092032;28;20107;-47
2023/06/02 04:32:49;;;;;;;16.00;5.35;;;;;;;9.22;85.18;102037.69;5091850;28;20380;-50
2023/06/02 04:35:15;;;;;;;11.73;5.03;;;;;;;9.27;85.22;102034.47;5092178;28;20032;-45
2023/06/02 04:37:44;;;;;;;19.42;5.97;;;;;;;9.29;86.09;102033.75;5094879;28;20028;-47
2023/06/02 04:40:10;;;;;;;17.60;5.65;;;;;;;9.28;83.13;102041.38;5095351;28;20035;-46
2023/06/02 04:42:38;;;;;;;16.38;4.97;;;;;;;9.28;83.31;102037.09;5095454;28;20228;-49
2023/06/02 04:45:11;;;;;;;14.95;4.47;;;;;;;9.30;83.30;102035.50;5095827;28;20020;-47
2023/06/02 04:47:36;;;;;;;15.57;4.85;;;;;;;9.32;82.24;102038.16;5095130;28;20035;-49
2023/06/02 04:50:02;;;;;;;12.63;3.95;;;;;;;9.32;82.29;102044.22;5095861;28;20376;-48
2023/06/02 04:52:27;;;;;;;13.52;3.97;;;;;;;9.32;81.85;102040.75;5095302;28;20016;-47
2023/06/02 04:54:52;;;;;;;13.18;3.58;;;;;;;9.32;81.69;102045.88;5094977;28;20472;-47
2023/06/02 04:57:18;;;;;;;17.95;4.10;;;;;;;9.35;82.51;102040.94;5095239;28;20028;-48
2023/06/02 04:59:43;;;;;;;15.05;4.18;;;;;;;9.36;82.99;102042.66;5095458;28;20028;-46
2023/06/02 05:02:09;;;;;;;12.65;4.25;;;;;;;9.41;82.07;102042.94;5095080;28;20023;-48
2023/06/02 05:04:34;;;;;;;13.80;4.05;;;;;;;9.43;82.21;102047.34;5095215;28;20095;-49
2023/06/02 05:07:00;;;;;;;21.10;4.53;;;;;;;9.44;82.01;102051.69;5094671;28;20135;-49
2023/06/02 05:09:25;;;;;;;13.55;4.18;;;;;;;9.49;82.69;102052.84;5094896;28;20050;-50
2023/06/02 05:11:50;;;;;;;12.00;3.90;;;;;;;9.54;82.84;102061.69;5095568;28;20048;-50
2023/06/02 05:14:16;;;;;;;18.70;4.00;;;;;;;9.55;81.06;102057.41;5094421;28;20032;-44
2023/06/02 05:16:45;;;;;;;16.55;4.18;;;;;;;9.53;80.25;102061.59;5095392;28;20020;-49
2023/06/02 05:19:10;;;;;;;15.45;4.35;;;;;;;9.55;81.29;102060.88;5094938;28;20040;-44
2023/06/02 05:21:35;;;;;;;12.93;3.60;;;;;;;9.59;82.25;102058.47;5094404;28;20038;-49
2023/06/02 05:24:01;;;;;;;19.33;4.75;;;;;;;9.63;81.64;102068.13;5095020;28;20379;-49
2023/06/02 05:26:26;;;;;;;15.52;4.70;;;;;;;9.66;81.29;102056.28;5094689;28;20085;-47
2023/06/02 05:28:53;;;;;;;13.93;3.53;;;;;;;9.71;81.91;102069.41;5094651;28;20020;-47
2023/06/02 05:31:19;;;;;;;19.35;4.78;;;;;;;9.72;80.89;102058.28;5094803;28;20096;-49
2023/06/02 05:33:44;;;;;;;15.82;3.95;;;;;;;9.71;80.33;102064.28;5094661;28;20375;-45
2023/06/02 05:36:10;;;;;;;15.50;3.78;;;;;;;9.70;79.85;102059.94;5094444;28;20042;-48
2023/06/02 05:38:35;;;;;;;18.15;4.28;;;;;;;9.74;80.29;102063.56;5094483;28;20024;-50
2023/06/02 05:41:00;;;;;;;13.70;3.63;;;;;;;9.81;80.92;102056.22;5094783;28;20042;-49
2023/06/02 05:43:26;;;;;;;16.70;4.00;;;;;;;9.84;79.97;102061.53;5094124;28;20020;-48
2023/06/02 05:45:52;;;;;;;18.10;4.30;;;;;;;9.83;79.52;102058.88;5094811;28;20031;-49
2023/06/02 05:48:17;;;;;;;18.20;4.03;;;;;;;9.85;80.11;102060.72;5093862;28;20032;-48
2023/06/02 05:50:43;;;;;;;17.30;4.38;;;;;;;9.87;79.14;102061.66;5094111;28;20030;-49
2023/06/02 05:53:08;;;;;;;15.13;4.38;;;;;;;9.87;78.15;102066.81;5094507;28;20358;-48
2023/06/02 05:55:34;;;;;;;17.50;3.80;;;;;;;9.83;77.91;102062.31;5093812;28;20028;-49
2023/06/02 05:57:59;;;;;;;19.67;4.05;;;;;;;9.80;78.14;102063.84;5094094;28;20028;-48
2023/06/02 06:00:25;;;;;;;15.73;3.92;;;;;;;9.78;79.16;102066.34;5094322;28;20066;-47
2023/06/02 06:02:50;;;;;;;16.80;3.60;;;;;;;9.74;77.82;102063.56;5094315;28;20024;-49
2023/06/02 06:05:16;;;;;;;16.25;4.18;;;;;;;9.75;79.11;102066.19;5093622;28;20020;-46
2023/06/02 06:07:41;;;;;;;13.48;4.10;;;;;;;9.82;79.25;102068.28;5094234;28;20024;-46
2023/06/02 06:10:06;;;;;;;17.67;4.70;;;;;;;9.88;79.54;102068.59;5093959;28;20047;-48
2023/06/02 06:12:32;;;;;;;17.35;4.50;;;;;;;9.91;78.48;102070.44;5093466;28;20027;-49
2023/06/02 06:14:57;;;;;;;19.98;3.83;;;;;;;9.92;77.96;102056.78;5094117;28;20032;-50
2023/06/02 06:17:22;;;;;;;17.02;4.05;;;;;;;9.95;77.81;102068.91;5093080;28;20019;-49
2023/06/02 06:19:47;;;;;;;18.55;4.20;;;;;;;9.94;77.30;102072.28;5093864;28;20040;-46
2023/06/02 06:22:13;;;;;;;14.70;4.00;;;;;;;10.00;77.15;102067.47;5094155;28;20024;-45
2023/06/02 06:24:38;;;;;;;16.15;4.07;;;;;;;10.04;76.38;102069.38;5092906;28;20040;-45
2023/06/02 06:27:04;;;;;;;13.90;3.80;;;;;;;10.12;77.37;102072.38;5094027;28;20032;-48
2023/06/02 06:29:29;;;;;;;24.75;4.85;;;;;;;10.17;77.97;102070.91;5093499;28;20350;-47
2023/06/02 06:31:54;;;;;;;19.63;4.50;;;;;;;10.18;78.14;102068.41;5093336;28;20082;-49
2023/06/02 06:34:19;;;;;;;16.70;4.13;;;;;;;10.19;76.75;102072.75;5093424;28;20446;-47
2023/06/02 06:36:47;;;;;;;17.02;4.07;;;;;;;10.26;78.11;102070.50;5093478;28;20039;-46
2023/06/02 06:39:12;;;;;;;;;;;;;;;10.40;77.09;102066.06;5093635;28;20038;-46
2023/06/02 06:41:40;;;;;;;14.85;3.90;;;;;;;10.33;76.30;102077.75;5093447;28;19912;-44
2023/06/02 06:44:05;;;;;;;16.42;4.05;;;;;;;10.36;77.46;102078.78;5093496;28;20369;-46
2023/06/02 06:46:31;;;;;;;12.65;3.95;;;;;;;10.36;76.07;102078.78;5092669;28;20495;-49
2023/06/02 06:48:56;;;;;;;17.13;4.00;;;;;;;10.41;76.71;102080.72;5093596;28;20130;-46
2023/06/02 06:51:21;;;;;;;12.98;3.58;;;;;;;10.47;77.11;102076.75;5093051;28;20388;-47
2023/06/02 06:53:46;;;;;;;14.88;4.22;;;;;;;10.54;76.85;102076.25;5092881;28;20020;-47
2023/06/02 06:56:12;;;;;;;16.25;4.03;;;;;;;10.66;75.57;102073.38;5093481;28;20040;-45
2023/06/02 06:58:37;;;;;;;17.48;4.25;;;;;;;10.75;75.19;102072.94;5092571;28;20036;-42
2023/06/02 07:01:03;;;;;;;22.23;4.68;;;;;;;10.86;74.80;102076.94;5092648;28;20024;-44
2023/06/02 07:03:28;;;;;;;21.33;4.50;;;;;;;10.97;76.04;102061.97;5092907;28;20020;-46
2023/06/02 07:05:53;;;;;;;15.48;3.53;;;;;;;10.99;73.00;102072.38;5092956;28;20032;-47
2023/06/02 07:08:18;;;;;;;16.08;4.18;;;;;;;11.07;73.02;102071.03;5092312;28;20020;-47
2023/06/02 07:10:44;;;;;;;16.92;4.03;;;;;;;11.19;72.54;102060.41;5092934;28;20016;-48
2023/06/02 07:13:09;;;;;;;18.50;4.13;;;;;;;11.24;72.50;102073.53;5093062;28;20023;-50
2023/06/02 07:15:34;;;;;;;17.73;4.18;;;;;;;11.38;72.21;102069.88;5092294;28;20494;-47
2023/06/02 07:18:00;;;;;;;13.93;3.35;;;;;;;11.39;70.76;102073.31;5093175;28;20028;-49
2023/06/02 07:20:25;;;;;;;16.02;3.95;;;;;;;11.49;71.50;102070.34;5092275;28;20074;-47
2023/06/02 07:22:50;;;;;;;20.98;4.07;;;;;;;11.58;70.35;102069.91;5092480;28;20030;-48
2023/06/02 07:25:15;;;;;;;17.33;3.47;;;;;;;11.60;69.45;102070.88;5092765;28;20349;-45
2023/06/02 07:27:41;;;;;;;13.18;3.60;;;;;;;11.80;70.51;102075.22;5092168;28;20089;-48
2023/06/02 07:30:07;;;;;;;14.25;3.75;;;;;;;11.95;69.79;102081.88;5092956;28;20368;-48
2023/06/02 07:32:32;;;;;;;15.95;4.07;;;;;;;12.01;69.20;102082.19;5092568;28;20032;-45
2023/06/02 07:34:58;;;;;;;14.70;3.72;;;;;;;12.00;68.14;102088.16;5092300;28;20040;-44
2023/06/02 07:37:23;;;;;;;16.58;4.05;;;;;;;12.02;68.26;102091.69;5092396;28;20246;-48
2023/06/02 07:39:48;;;;;;;15.57;3.85;;;;;;;12.14;67.37;102094.81;5092770;28;20736;-49
2023/06/02 07:42:14;;;;;;;12.45;3.67;;;;;;;12.32;67.75;102094.69;5092397;28;20016;-48
2023/06/02 07:44:39;;;;;;;15.82;3.90;;;;;;;12.57;65.18;102085.38;5092637;28;20142;-49
2023/06/02 07:47:07;;;;;;;15.68;3.53;;;;;;;12.60;65.65;102079.44;5092705;28;20047;-48
2023/06/02 07:49:33;;;;;;;14.60;3.53;;;;;;;12.77;67.20;102078.44;5091963;28;20024;-47
2023/06/02 07:51:58;;;;;;;17.05;3.85;;;;;;;12.78;63.82;102074.16;5092898;28;20016;-48
2023/06/02 07:54:24;;;;;;;16.42;3.97;;;;;;;12.76;64.21;102080.97;5092319;28;20374;-48
2023/06/02 07:56:50;;;;;;;17.27;3.95;;;;;;;12.65;63.92;102078.84;5092309;28;20414;-49
2023/06/02 07:59:18;;;;;;;15.93;3.35;;;;;;;12.76;64.64;102074.09;5092384;28;20502;-47
2023/06/02 08:01:43;;;;;;;13.82;3.78;;;;;;;12.67;62.97;102071.13;5092336;28;20479;-49
2023/06/02 08:04:09;;;;;;;14.57;3.75;;;;;;;12.67;63.63;102076.31;5091964;28;20027;-45
2023/06/02 08:06:35;;;;;;;16.67;4.30;;;;;;;12.62;63.10;102080.41;5092255;28;20538;-48
2023/06/02 08:09:00;;;;;;;12.10;3.60;;;;;;;12.58;63.16;102081.13;5092606;28;20091;-49
2023/06/02 08:11:26;;;;;;;15.63;3.67;;;;;;;12.58;64.40;102076.81;5094406;28;20461;-49
2023/06/02 08:13:51;;;;;;;24.75;4.28;;;;;;;12.56;64.29;102077.56;5096525;28;20028;-49
2023/06/02 08:16:16;;;;;;;15.77;3.67;;;;;;;12.68;63.47;102078.09;5095859;28;20028;-48
2023/06/02 08:18:42;;;;;;;16.10;3.80;;;;;;;12.68;63.44;102072.91;5095964;28;20024;-49
2023/06/02 08:21:07;;;;;;;16.13;3.67;;;;;;;12.71;64.01;102078.19;5096349;28;20043;-49
2023/06/02 08:23:32;;;;;;;15.52;3.70;;;;;;;12.70;62.91;102073.84;5095878;28;20089;-48
2023/06/02 08:25:59;;;;;;;14.85;4.13;;;;;;;12.79;63.75;102071.63;5095826;28;20020;-48
2023/06/02 08:28:29;;;;;;;21.58;3.83;;;;;;;13.00;64.05;102078.47;5096004;28;20032;-50
2023/06/02 08:30:58;;;;;;;19.48;4.20;;;;;;;12.94;62.01;102076.53;5095553;28;20028;-49
2023/06/02 08:33:24;;;;;;;22.25;4.30;;;;;;;13.00;62.66;102075.88;5095717;28;20460;-49
2023/06/02 08:35:51;;;;;;;15.85;4.10;;;;;;;13.07;61.68;102075.31;5095585;28;20046;-48
2023/06/02 08:38:17;;;;;;;14.65;3.75;;;;;;;13.16;62.07;102078.25;5095282;28;20028;-48
2023/06/02 08:40:42;;;;;;;16.67;4.35;;;;;;;13.26;62.31;102079.50;5095790;28;20064;-48
2023/06/02 08:43:09;;;;;;;17.92;4.28;;;;;;;13.19;61.32;102074.91;5095786;28;20040;-44
2023/06/02 08:45:34;;;;;;;19.13;4.43;;;;;;;13.19;60.66;102080.06;5094862;28;20443;-47
2023/06/02 08:48:05;;;;;;;13.98;3.70;;;;;;;13.23;61.32;102079.34;5095782;28;20493;-45
2023/06/02 08:50:35;;;;;;;13.63;4.07;;;;;;;13.34;61.68;102074.63;5095195;28;20456;-49
2023/06/02 08:53:03;;;;;;;21.92;4.95;;;;;;;13.62;62.48;102073.97;5095258;28;20021;-49
2023/06/02 08:55:29;;;;;;;15.40;3.63;;;;;;;13.62;61.82;102073.06;5095472;28;20107;-47
2023/06/02 08:57:54;;;;;;;14.73;3.63;;;;;;;13.97;61.30;102076.06;5095288;28;20107;-46
2023/06/02 09:00:20;;;;;;;16.27;3.92;;;;;;;14.54;60.68;102066.72;5094536;28;20040;-47
2023/06/02 09:02:48;;;;;;;13.75;3.90;;;;;;;14.69;58.42;102064.66;5095562;28;20588;-45
2023/06/02 09:05:18;;;;;;;15.90;3.60;;;;;;;15.02;56.01;102063.97;5095115;28;20429;-48
2023/06/02 09:07:45;;;;;;;19.23;4.40;;;;;;;15.10;54.24;102062.47;5095095;28;20027;-46
2023/06/02 09:10:28;;;;;;;12.70;4.40;;;;;;;15.34;55.25;102066.66;5095507;28;20038;-45
2023/06/02 09:12:53;;;;;;;14.38;4.25;;;;;;;15.30;54.91;102064.81;5095340;28;20103;-46
2023/06/02 09:15:18;;;;;;;14.90;4.25;;;;;;;15.46;54.23;102061.81;5094222;28;20115;-49
2023/06/02 09:17:44;;;;;;;16.00;3.92;;;;;;;15.71;54.08;102065.13;5095171;28;20103;-45
2023/06/02 09:20:12;;;;;;;16.58;4.03;;;;;;;15.99;54.25;102063.28;5094498;28;20083;-48
2023/06/02 09:22:57;;;;;;;13.63;4.18;;;;;;;16.02;53.21;102060.75;5094316;28;20035;-47
2023/06/02 09:25:28;;;;;;;13.60;3.80;;;;;;;16.83;50.77;102061.03;5094557;28;20095;-49
2023/06/02 09:27:56;;;;;;;16.60;3.83;;;;;;;17.11;49.44;102062.56;5094443;28;20112;-48
2023/06/02 09:30:21;;;;;;;15.45;3.72;;;;;;;16.80;49.39;102060.97;5094929;28;20024;-48
2023/06/02 09:33:03;;;;;;;19.75;4.80;;;;;;;17.32;51.79;102065.63;5094995;28;20099;-46
2023/06/02 09:35:44;;;;;;;15.13;3.75;;;;;;;17.76;47.30;102063.00;5094060;28;20032;-49
2023/06/02 09:38:14;;;;;;;17.10;4.40;;;;;;;18.21;49.17;102056.03;5094945;28;20094;-46
2023/06/02 09:40:41;;;;;;;17.30;3.75;;;;;;;18.07;46.20;102064.50;5094244;28;20383;-48
2023/06/02 09:43:10;;;;;;;14.30;3.40;;;;;;;18.06;49.60;102064.47;5094433;28;20020;-48
2023/06/02 09:45:47;;;;;;;15.63;3.88;;;;;;;17.52;48.97;102056.47;5094510;28;20070;-49
2023/06/02 09:48:20;;;;;;;15.23;3.90;;;;;;;16.79;49.79;102052.25;5094098;28;20028;-46
2023/06/02 09:50:46;;;;;;;27.85;8.38;;;;;;;16.46;50.22;102050.63;5094537;28;20024;-45
2023/06/02 09:53:13;;;;;;;45.28;13.88;;;;;;;16.36;51.33;102051.25;5094468;28;20024;-47
2023/06/02 09:55:38;;;;;;;;;;;;;;;16.63;52.53;102056.25;5094141;28;20031;-47
2023/06/02 09:58:05;;;;;;;19.43;6.10;;;;;;;16.65;53.00;102056.28;5094654;28;19916;-48
2023/06/02 10:00:31;;;;;;;43.63;14.00;;;;;;;17.38;53.41;102055.31;5093911;28;20031;-48
2023/06/02 10:02:57;;;;;;;31.10;10.05;;;;;;;17.80;49.46;102059.63;5093737;28;20038;-48
2023/06/02 10:05:23;;;;;;;19.30;6.20;;;;;;;17.93;48.12;102056.44;5094045;28;20103;-50
2023/06/02 10:08:07;;;;;;;15.95;4.20;;;;;;;18.92;48.63;102051.97;5094236;28;20099;-46
2023/06/02 10:10:58;;;;;;;14.63;4.10;;;;;;;18.84;47.67;102050.97;5093451;28;20081;-49
2023/06/02 10:13:57;;;;;;;14.15;4.03;;;;;;;18.37;46.21;102058.06;5093919;28;20028;-49
2023/06/02 10:16:45;;;;;;;12.27;3.75;;;;;;;19.17;45.64;102060.13;5093256;28;20119;-49
2023/06/02 10:19:31;;;;;;;13.82;4.03;;;;;;;19.81;43.84;102053.94;5093848;28;20519;-48
2023/06/02 10:22:05;;;;;;;12.38;3.78;;;;;;;21.45;42.86;102049.91;5093805;28;20039;-44
2023/06/02 10:24:36;;;;;;;14.52;4.00;;;;;;;21.26;40.77;102057.69;5093249;28;20024;-47
2023/06/02 10:27:20;;;;;;;15.48;4.07;;;;;;;20.42;40.11;102056.25;5093965;28;20063;-48
2023/06/02 10:29:46;;;;;;;14.60;3.70;;;;;;;20.00;41.55;102058.53;5093665;28;20028;-49
2023/06/02 10:32:22;;;;;;;12.52;3.72;;;;;;;19.83;42.54;102044.38;5093190;28;20024;-45
2023/06/02 10:34:51;;;;;;;51.10;6.55;;;;;;;18.98;43.90;102057.28;5092956;28;20042;-49
2023/06/02 10:37:19;;;;;;;15.95;4.00;;;;;;;18.38;45.49;102056.31;5093303;28;20081;-49
2023/06/02 10:39:44;;;;;;;13.80;3.83;;;;;;;18.04;46.03;102059.22;5093396;28;20119;-49
2023/06/02 10:42:14;;;;;;;15.87;4.20;;;;;;;18.88;46.17;102052.75;5093478;28;20380;-47
2023/06/02 10:44:40;;;;;;;18.05;4.93;;;;;;;19.05;44.91;102053.88;5092720;28;20323;-48
2023/06/02 10:47:17;;;;;;;17.55;3.78;;;;;;;19.11;45.18;102052.22;5093449;28;20028;-46
2023/06/02 10:50:09;;;;;;;15.48;3.95;;;;;;;19.32;45.54;102047.25;5093166;28;20357;-50
2023/06/02 10:52:59;;;;;;;12.82;3.97;;;;;;;19.12;47.14;102053.97;5092496;28;20021;-45
2023/06/02 10:55:29;;;;;;;19.70;4.88;;;;;;;19.03;46.48;102055.63;5092827;28;20036;-49
2023/06/02 10:57:58;;;;;;;13.07;4.07;;;;;;;18.86;45.85;102051.84;5093348;28;20097;-45
2023/06/02 11:00:29;;;;;;;17.65;3.80;;;;;;;19.00;47.60;102052.94;5092605;28;20016;-49
2023/06/02 11:02:54;;;;;;;14.65;4.38;;;;;;;19.53;46.08;102051.00;5093393;28;20102;-48
2023/06/02 11:05:27;;;;;;;14.35;3.97;;;;;;;19.52;45.34;102054.47;5092858;28;20154;-49
2023/06/02 11:08:11;;;;;;;16.98;4.82;;;;;;;19.51;45.40;102047.47;5092613;28;20032;-50
2023/06/02 11:10:55;;;;;;;14.85;4.75;;;;;;;19.18;47.08;102054.06;5092603;28;20036;-49
2023/06/02 11:13:22;;;;;;;20.55;5.10;;;;;;;19.41;46.44;102042.16;5092337;28;20020;-48
2023/06/02 11:15:53;;;;;;;16.00;4.22;;;;;;;20.66;44.74;102047.72;5092949;28;20034;-48
2023/06/02 11:18:21;;;;;;;14.82;4.05;;;;;;;20.27;43.88;102046.56;5092403;28;20491;-50
2023/06/02 11:20:49;;;;;;;15.05;4.40;;;;;;;20.00;43.35;102037.59;5092269;28;20046;-49
2023/06/02 11:23:15;;;;;;;19.50;5.13;;;;;;;20.10;43.58;102042.91;5093050;28;20185;-45